sensor_id;sensor_type;location;lat;lon;timestamp;pressure;altitude;pressure_sealevel;temperature;humidity
41078;BME280;26823;42.662;23.352;2022-08-19T00:01:47;94549.56;;;21.55;61.46
41078;BME280;26823;42.662;23.352;2022-08-19T00:04:15;94545.97;;;21.55;61.33
41078;BME280;26823;42.662;23.352;2022-08-19T00:06:43;94517.78;;;21.26;61.41
41078;BME280;26823;42.662;23.352;2022-08-19T00:09:12;94555.75;;;21.36;63.05
41078;BME280;26823;42.662;23.352;2022-08-19T00:11:40;94557.34;;;21.37;63.13
41078;BME280;26823;42.662;23.352;2022-08-19T00:14:08;94549.16;;;21.41;63.06
41078;BME280;26823;42.662;23.352;2022-08-19T00:16:36;94552.47;;;21.46;62.84
41078;BME280;26823;42.662;23.352;2022-08-19T00:19:02;94558.50;;;21.52;62.75
41078;BME280;26823;42.662;23.352;2022-08-19T00:21:28;94557.81;;;21.55;62.88
41078;BME280;26823;42.662;23.352;2022-08-19T00:23:54;94558.34;;;21.45;63.14
41078;BME280;26823;42.662;23.352;2022-08-19T00:26:24;94560.53;;;21.39;63.01
41078;BME280;26823;42.662;23.352;2022-08-19T00:28:49;94555.03;;;21.39;63.51
41078;BME280;26823;42.662;23.352;2022-08-19T00:31:15;94555.59;;;21.45;62.82
41078;BME280;26823;42.662;23.352;2022-08-19T00:33:41;94563.19;;;21.51;63.09
41078;BME280;26823;42.662;23.352;2022-08-19T00:36:07;94570.06;;;21.58;62.93
41078;BME280;26823;42.662;23.352;2022-08-19T00:38:34;94565.94;;;21.35;63.84
41078;BME280;26823;42.662;23.352;2022-08-19T00:41:00;94550.94;;;21.33;64.02
41078;BME280;26823;42.662;23.352;2022-08-19T00:43:26;94548.81;;;21.26;63.59
41078;BME280;26823;42.662;23.352;2022-08-19T00:45:52;94545.97;;;21.23;63.87
41078;BME280;26823;42.662;23.352;2022-08-19T00:48:19;94556.53;;;21.21;64.72
41078;BME280;26823;42.662;23.352;2022-08-19T00:50:47;94548.00;;;21.10;64.23
41078;BME280;26823;42.662;23.352;2022-08-19T00:53:15;94556.59;;;21.08;63.73
41078;BME280;26823;42.662;23.352;2022-08-19T00:55:46;94560.50;;;21.07;64.28
41078;BME280;26823;42.662;23.352;2022-08-19T00:58:16;94546.66;;;21.04;64.56
41078;BME280;26823;42.662;23.352;2022-08-19T01:00:43;94555.56;;;21.13;64.90
41078;BME280;26823;42.662;23.352;2022-08-19T01:03:13;94560.03;;;21.05;65.33
41078;BME280;26823;42.662;23.352;2022-08-19T01:05:41;94551.38;;;20.75;66.45
41078;BME280;26823;42.662;23.352;2022-08-19T01:08:07;94557.97;;;20.86;66.35
41078;BME280;26823;42.662;23.352;2022-08-19T01:10:40;94552.47;;;20.86;66.67
41078;BME280;26823;42.662;23.352;2022-08-19T01:13:06;94554.22;;;20.66;67.37
41078;BME280;26823;42.662;23.352;2022-08-19T01:15:36;94554.22;;;20.78;66.83
41078;BME280;26823;42.662;23.352;2022-08-19T01:18:09;94550.94;;;20.73;67.57
41078;BME280;26823;42.662;23.352;2022-08-19T01:20:36;94541.41;;;20.70;66.90
41078;BME280;26823;42.662;23.352;2022-08-19T01:23:02;94542.75;;;20.48;68.37
41078;BME280;26823;42.662;23.352;2022-08-19T01:25:31;94552.97;;;20.63;68.60
41078;BME280;26823;42.662;23.352;2022-08-19T01:27:58;94547.84;;;20.62;68.23
41078;BME280;26823;42.662;23.352;2022-08-19T01:30:28;94551.16;;;20.67;67.96
41078;BME280;26823;42.662;23.352;2022-08-19T01:32:54;94558.19;;;20.52;68.59
41078;BME280;26823;42.662;23.352;2022-08-19T01:35:22;94558.41;;;20.60;68.14
41078;BME280;26823;42.662;23.352;2022-08-19T01:37:55;94546.06;;;20.53;67.78
41078;BME280;26823;42.662;23.352;2022-08-19T01:40:22;94559.19;;;20.60;67.78
41078;BME280;26823;42.662;23.352;2022-08-19T01:42:49;94555.97;;;20.58;68.08
41078;BME280;26823;42.662;23.352;2022-08-19T01:45:15;94551.09;;;20.51;68.57
41078;BME280;26823;42.662;23.352;2022-08-19T01:47:41;94548.47;;;20.43;68.88
41078;BME280;26823;42.662;23.352;2022-08-19T01:50:08;94523.84;;;20.18;68.97
41078;BME280;26823;42.662;23.352;2022-08-19T01:52:39;94551.84;;;20.24;69.32
41078;BME280;26823;42.662;23.352;2022-08-19T01:55:08;94549.22;;;20.27;69.37
41078;BME280;26823;42.662;23.352;2022-08-19T01:57:34;94549.19;;;20.40;69.24
41078;BME280;26823;42.662;23.352;2022-08-19T02:00:01;94515.63;;;20.18;68.78
41078;BME280;26823;42.662;23.352;2022-08-19T02:02:29;94548.19;;;20.32;68.82
41078;BME280;26823;42.662;23.352;2022-08-19T02:04:54;94541.22;;;20.22;69.75
41078;BME280;26823;42.662;23.352;2022-08-19T02:07:20;94540.00;;;19.95;71.16
41078;BME280;26823;42.662;23.352;2022-08-19T02:09:47;94552.34;;;20.13;70.67
41078;BME280;26823;42.662;23.352;2022-08-19T02:12:14;94555.22;;;20.04;71.46
41078;BME280;26823;42.662;23.352;2022-08-19T02:14:39;94546.41;;;19.99;71.21
41078;BME280;26823;42.662;23.352;2022-08-19T02:17:05;94546.13;;;20.16;70.52
41078;BME280;26823;42.662;23.352;2022-08-19T02:19:30;94557.94;;;20.17;70.83
41078;BME280;26823;42.662;23.352;2022-08-19T02:21:58;94554.06;;;20.18;70.70
41078;BME280;26823;42.662;23.352;2022-08-19T02:24:25;94546.34;;;20.24;69.84
41078;BME280;26823;42.662;23.352;2022-08-19T02:26:50;94559.19;;;20.19;69.57
41078;BME280;26823;42.662;23.352;2022-08-19T02:29:16;94551.75;;;20.08;70.25
41078;BME280;26823;42.662;23.352;2022-08-19T02:31:41;94547.22;;;19.99;70.49
41078;BME280;26823;42.662;23.352;2022-08-19T02:34:07;94553.16;;;20.01;70.61
41078;BME280;26823;42.662;23.352;2022-08-19T02:36:32;94557.72;;;20.10;70.06
41078;BME280;26823;42.662;23.352;2022-08-19T02:38:58;94544.94;;;20.01;70.17
41078;BME280;26823;42.662;23.352;2022-08-19T02:41:26;94560.44;;;20.22;69.62
41078;BME280;26823;42.662;23.352;2022-08-19T02:43:54;94545.84;;;19.93;70.34
41078;BME280;26823;42.662;23.352;2022-08-19T02:46:24;94560.94;;;19.99;70.43
41078;BME280;26823;42.662;23.352;2022-08-19T02:48:52;94559.69;;;19.84;71.36
41078;BME280;26823;42.662;23.352;2022-08-19T02:51:21;94572.25;;;19.98;71.15
41078;BME280;26823;42.662;23.352;2022-08-19T02:53:47;94564.03;;;19.98;70.89
41078;BME280;26823;42.662;23.352;2022-08-19T02:56:12;94567.69;;;19.90;71.21
41078;BME280;26823;42.662;23.352;2022-08-19T02:58:38;94582.88;;;19.87;71.31
41078;BME280;26823;42.662;23.352;2022-08-19T03:01:04;94575.25;;;19.93;71.02
41078;BME280;26823;42.662;23.352;2022-08-19T03:03:30;94561.63;;;19.84;71.11
41078;BME280;26823;42.662;23.352;2022-08-19T03:06:12;94576.16;;;19.84;71.46
41078;BME280;26823;42.662;23.352;2022-08-19T03:08:39;94569.16;;;19.87;70.86
41078;BME280;26823;42.662;23.352;2022-08-19T03:11:05;94569.38;;;19.82;71.05
41078;BME280;26823;42.662;23.352;2022-08-19T03:13:31;94562.06;;;19.74;71.01
41078;BME280;26823;42.662;23.352;2022-08-19T03:15:56;94551.22;;;19.65;71.20
41078;BME280;26823;42.662;23.352;2022-08-19T03:18:22;94560.00;;;19.70;71.18
41078;BME280;26823;42.662;23.352;2022-08-19T03:20:50;94557.13;;;19.67;71.39
41078;BME280;26823;42.662;23.352;2022-08-19T03:23:18;94555.66;;;19.45;72.80
41078;BME280;26823;42.662;23.352;2022-08-19T03:25:45;94544.00;;;19.48;72.40
41078;BME280;26823;42.662;23.352;2022-08-19T03:28:12;94559.53;;;19.68;72.04
41078;BME280;26823;42.662;23.352;2022-08-19T03:30:39;94559.75;;;19.63;72.28
41078;BME280;26823;42.662;23.352;2022-08-19T03:33:07;94562.41;;;19.60;72.49
41078;BME280;26823;42.662;23.352;2022-08-19T03:35:33;94553.59;;;19.54;72.54
41078;BME280;26823;42.662;23.352;2022-08-19T03:38:00;94556.06;;;19.22;74.39
41078;BME280;26823;42.662;23.352;2022-08-19T03:40:25;94553.81;;;19.36;73.87
41078;BME280;26823;42.662;23.352;2022-08-19T03:42:51;94567.28;;;19.42;74.05
41078;BME280;26823;42.662;23.352;2022-08-19T03:45:17;94569.38;;;19.45;73.80
41078;BME280;26823;42.662;23.352;2022-08-19T03:47:42;94567.97;;;19.38;74.00
41078;BME280;26823;42.662;23.352;2022-08-19T03:50:08;94576.34;;;19.42;73.92
41078;BME280;26823;42.662;23.352;2022-08-19T03:52:34;94576.34;;;19.42;74.42
41078;BME280;26823;42.662;23.352;2022-08-19T03:55:01;94582.16;;;19.53;73.61
41078;BME280;26823;42.662;23.352;2022-08-19T03:57:27;94585.50;;;19.59;73.17
41078;BME280;26823;42.662;23.352;2022-08-19T03:59:52;94589.09;;;19.38;74.64
41078;BME280;26823;42.662;23.352;2022-08-19T04:02:18;94587.31;;;19.42;74.25
41078;BME280;26823;42.662;23.352;2022-08-19T04:04:43;94588.22;;;19.46;73.79
41078;BME280;26823;42.662;23.352;2022-08-19T04:07:10;94582.34;;;19.35;74.18
41078;BME280;26823;42.662;23.352;2022-08-19T04:09:37;94603.53;;;19.47;74.09
41078;BME280;26823;42.662;23.352;2022-08-19T04:12:04;94600.53;;;19.40;74.66
41078;BME280;26823;42.662;23.352;2022-08-19T04:14:31;94597.34;;;19.50;74.05
41078;BME280;26823;42.662;23.352;2022-08-19T04:16:59;94605.59;;;19.50;73.85
41078;BME280;26823;42.662;23.352;2022-08-19T04:19:26;94611.28;;;19.45;74.10
41078;BME280;26823;42.662;23.352;2022-08-19T04:21:53;94606.97;;;19.56;73.89
41078;BME280;26823;42.662;23.352;2022-08-19T04:24:20;94606.28;;;19.72;73.04
41078;BME280;26823;42.662;23.352;2022-08-19T04:26:46;94595.31;;;19.60;73.38
41078;BME280;26823;42.662;23.352;2022-08-19T04:29:18;94604.34;;;19.60;73.37
41078;BME280;26823;42.662;23.352;2022-08-19T04:31:46;94600.47;;;19.61;73.22
41078;BME280;26823;42.662;23.352;2022-08-19T04:34:13;94608.47;;;19.66;73.52
41078;BME280;26823;42.662;23.352;2022-08-19T04:36:41;94612.94;;;19.71;73.69
41078;BME280;26823;42.662;23.352;2022-08-19T04:39:10;94620.59;;;19.78;73.08
41078;BME280;26823;42.662;23.352;2022-08-19T04:41:36;94610.22;;;19.83;72.57
41078;BME280;26823;42.662;23.352;2022-08-19T04:44:20;94611.59;;;19.90;71.74
41078;BME280;26823;42.662;23.352;2022-08-19T04:46:47;94597.94;;;19.81;71.94
41078;BME280;26823;42.662;23.352;2022-08-19T04:49:16;94600.25;;;19.91;69.89
41078;BME280;26823;42.662;23.352;2022-08-19T04:51:44;94612.38;;;20.02;69.39
41078;BME280;26823;42.662;23.352;2022-08-19T04:54:10;94611.59;;;20.14;70.33
41078;BME280;26823;42.662;23.352;2022-08-19T04:56:36;94614.09;;;20.19;70.11
41078;BME280;26823;42.662;23.352;2022-08-19T04:59:02;94607.78;;;20.31;69.26
41078;BME280;26823;42.662;23.352;2022-08-19T05:01:32;94614.88;;;20.45;69.01
41078;BME280;26823;42.662;23.352;2022-08-19T05:04:03;94614.72;;;20.53;68.87
41078;BME280;26823;42.662;23.352;2022-08-19T05:06:31;94612.75;;;20.66;68.73
41078;BME280;26823;42.662;23.352;2022-08-19T05:08:58;94616.16;;;20.76;69.05
41078;BME280;26823;42.662;23.352;2022-08-19T05:11:26;94612.38;;;20.80;69.09
41078;BME280;26823;42.662;23.352;2022-08-19T05:13:53;94621.59;;;21.00;68.42
41078;BME280;26823;42.662;23.352;2022-08-19T05:16:21;94623.19;;;21.01;68.54
41078;BME280;26823;42.662;23.352;2022-08-19T05:18:47;94616.13;;;21.16;67.98
41078;BME280;26823;42.662;23.352;2022-08-19T05:21:35;94614.13;;;21.29;66.59
41078;BME280;26823;42.662;23.352;2022-08-19T05:24:20;94624.50;;;21.36;66.60
41078;BME280;26823;42.662;23.352;2022-08-19T05:26:48;94622.44;;;21.61;66.04
41078;BME280;26823;42.662;23.352;2022-08-19T05:29:16;94604.28;;;21.44;67.02
41078;BME280;26823;42.662;23.352;2022-08-19T05:31:42;94622.19;;;21.66;64.31
41078;BME280;26823;42.662;23.352;2022-08-19T05:34:08;94619.34;;;21.79;64.31
41078;BME280;26823;42.662;23.352;2022-08-19T05:36:40;94623.00;;;21.99;62.48
41078;BME280;26823;42.662;23.352;2022-08-19T05:39:07;94615.59;;;22.03;62.25
41078;BME280;26823;42.662;23.352;2022-08-19T05:41:34;94626.66;;;22.23;62.15
41078;BME280;26823;42.662;23.352;2022-08-19T05:44:04;94614.75;;;22.35;60.35
41078;BME280;26823;42.662;23.352;2022-08-19T05:46:34;94622.63;;;22.52;60.12
41078;BME280;26823;42.662;23.352;2022-08-19T05:49:02;94621.72;;;22.64;59.74
41078;BME280;26823;42.662;23.352;2022-08-19T05:51:29;94622.09;;;22.62;60.40
41078;BME280;26823;42.662;23.352;2022-08-19T05:53:55;94615.41;;;22.63;60.21
41078;BME280;26823;42.662;23.352;2022-08-19T05:56:20;94621.81;;;22.68;59.77
41078;BME280;26823;42.662;23.352;2022-08-19T05:58:46;94616.66;;;22.86;58.54
41078;BME280;26823;42.662;23.352;2022-08-19T06:01:16;94616.88;;;22.96;57.86
41078;BME280;26823;42.662;23.352;2022-08-19T06:03:43;94623.06;;;23.09;56.91
41078;BME280;26823;42.662;23.352;2022-08-19T06:06:10;94620.38;;;23.13;56.18
41078;BME280;26823;42.662;23.352;2022-08-19T06:08:37;94629.66;;;23.24;56.34
41078;BME280;26823;42.662;23.352;2022-08-19T06:11:35;94627.28;;;23.23;56.09
41078;BME280;26823;42.662;23.352;2022-08-19T06:14:04;94631.63;;;23.24;56.21
41078;BME280;26823;42.662;23.352;2022-08-19T06:16:30;94629.19;;;23.42;56.07
41078;BME280;26823;42.662;23.352;2022-08-19T06:19:00;94626.31;;;23.35;55.49
41078;BME280;26823;42.662;23.352;2022-08-19T06:21:28;94636.66;;;23.61;54.83
41078;BME280;26823;42.662;23.352;2022-08-19T06:23:57;94633.31;;;23.71;54.84
41078;BME280;26823;42.662;23.352;2022-08-19T06:26:23;94621.88;;;23.73;55.12
41078;BME280;26823;42.662;23.352;2022-08-19T06:28:50;94618.06;;;23.81;53.69
41078;BME280;26823;42.662;23.352;2022-08-19T06:31:25;94630.69;;;24.02;53.79
41078;BME280;26823;42.662;23.352;2022-08-19T06:33:50;94626.72;;;24.03;53.36
41078;BME280;26823;42.662;23.352;2022-08-19T06:36:28;94633.72;;;24.20;53.98
41078;BME280;26823;42.662;23.352;2022-08-19T06:39:01;94621.88;;;24.19;53.00
41078;BME280;26823;42.662;23.352;2022-08-19T06:41:28;94626.28;;;24.24;53.81
41078;BME280;26823;42.662;23.352;2022-08-19T06:43:54;94624.44;;;24.32;53.69
41078;BME280;26823;42.662;23.352;2022-08-19T06:46:24;94637.59;;;24.42;52.90
41078;BME280;26823;42.662;23.352;2022-08-19T06:49:06;94625.81;;;24.45;52.70
41078;BME280;26823;42.662;23.352;2022-08-19T06:51:37;94628.31;;;24.54;52.65
41078;BME280;26823;42.662;23.352;2022-08-19T06:54:04;94636.19;;;24.79;52.94
41078;BME280;26823;42.662;23.352;2022-08-19T06:56:31;94635.91;;;24.87;53.06
41078;BME280;26823;42.662;23.352;2022-08-19T06:59:04;94640.44;;;25.03;52.17
41078;BME280;26823;42.662;23.352;2022-08-19T07:01:34;94625.31;;;24.93;52.48
41078;BME280;26823;42.662;23.352;2022-08-19T07:03:59;94645.13;;;24.99;51.58
41078;BME280;26823;42.662;23.352;2022-08-19T07:06:26;94642.97;;;25.15;51.76
41078;BME280;26823;42.662;23.352;2022-08-19T07:08:58;94646.31;;;25.32;51.81
41078;BME280;26823;42.662;23.352;2022-08-19T07:11:24;94645.09;;;25.29;51.92
41078;BME280;26823;42.662;23.352;2022-08-19T07:16:51;94640.66;;;25.55;50.34
41078;BME280;26823;42.662;23.352;2022-08-19T07:21:57;94637.59;;;25.64;49.88
41078;BME280;26823;42.662;23.352;2022-08-19T07:24:25;94639.31;;;25.76;49.51
41078;BME280;26823;42.662;23.352;2022-08-19T07:26:56;94643.28;;;25.78;49.27
41078;BME280;26823;42.662;23.352;2022-08-19T07:29:27;94640.94;;;25.84;49.71
41078;BME280;26823;42.662;23.352;2022-08-19T07:31:56;94638.25;;;25.91;50.18
41078;BME280;26823;42.662;23.352;2022-08-19T07:34:24;94637.97;;;26.03;49.44
41078;BME280;26823;42.662;23.352;2022-08-19T07:36:51;94640.50;;;26.16;49.39
41078;BME280;26823;42.662;23.352;2022-08-19T07:39:20;94638.09;;;26.14;50.03
41078;BME280;26823;42.662;23.352;2022-08-19T07:41:47;94641.81;;;26.36;47.59
41078;BME280;26823;42.662;23.352;2022-08-19T07:44:14;94639.34;;;26.24;47.06
41078;BME280;26823;42.662;23.352;2022-08-19T07:46:45;94628.34;;;26.35;47.15
41078;BME280;26823;42.662;23.352;2022-08-19T07:49:11;94623.25;;;26.44;47.91
41078;BME280;26823;42.662;23.352;2022-08-19T07:51:43;94621.81;;;26.65;47.46
41078;BME280;26823;42.662;23.352;2022-08-19T07:54:09;94627.09;;;26.81;47.74
41078;BME280;26823;42.662;23.352;2022-08-19T07:56:37;94633.16;;;27.05;46.85
41078;BME280;26823;42.662;23.352;2022-08-19T07:59:05;94633.19;;;27.19;45.85
41078;BME280;26823;42.662;23.352;2022-08-19T08:01:30;94618.81;;;26.95;46.05
41078;BME280;26823;42.662;23.352;2022-08-19T08:03:57;94634.84;;;27.27;45.32
41078;BME280;26823;42.662;23.352;2022-08-19T08:06:41;94632.13;;;27.42;45.80
41078;BME280;26823;42.662;23.352;2022-08-19T08:09:30;94618.97;;;27.31;46.35
41078;BME280;26823;42.662;23.352;2022-08-19T08:12:08;94626.63;;;27.67;43.47
41078;BME280;26823;42.662;23.352;2022-08-19T08:14:47;94621.91;;;27.78;43.38
41078;BME280;26823;42.662;23.352;2022-08-19T08:17:16;94620.31;;;27.85;44.38
41078;BME280;26823;42.662;23.352;2022-08-19T08:19:43;94625.47;;;27.97;44.29
41078;BME280;26823;42.662;23.352;2022-08-19T08:22:11;94617.19;;;28.11;43.01
41078;BME280;26823;42.662;23.352;2022-08-19T08:25:08;94619.56;;;28.17;43.17
41078;BME280;26823;42.662;23.352;2022-08-19T08:27:39;94623.53;;;28.26;43.02
41078;BME280;26823;42.662;23.352;2022-08-19T08:30:15;94618.38;;;28.39;42.72
41078;BME280;26823;42.662;23.352;2022-08-19T08:32:42;94617.53;;;28.60;41.90
41078;BME280;26823;42.662;23.352;2022-08-19T08:35:12;94610.41;;;28.56;40.77
41078;BME280;26823;42.662;23.352;2022-08-19T08:37:38;94602.03;;;28.70;40.91
41078;BME280;26823;42.662;23.352;2022-08-19T08:40:09;94611.97;;;28.86;40.92
41078;BME280;26823;42.662;23.352;2022-08-19T08:42:45;94603.16;;;28.94;40.12
41078;BME280;26823;42.662;23.352;2022-08-19T08:45:17;94609.13;;;28.96;38.71
41078;BME280;26823;42.662;23.352;2022-08-19T08:47:47;94613.06;;;29.10;38.70
41078;BME280;26823;42.662;23.352;2022-08-19T08:50:38;94603.94;;;29.02;40.58
41078;BME280;26823;42.662;23.352;2022-08-19T08:53:07;94608.72;;;28.98;40.28
41078;BME280;26823;42.662;23.352;2022-08-19T08:55:34;94601.44;;;29.26;38.93
41078;BME280;26823;42.662;23.352;2022-08-19T08:58:31;94602.63;;;29.32;39.63
41078;BME280;26823;42.662;23.352;2022-08-19T09:01:09;94600.63;;;29.36;39.43
41078;BME280;26823;42.662;23.352;2022-08-19T09:03:37;94603.69;;;29.56;37.61
41078;BME280;26823;42.662;23.352;2022-08-19T09:06:07;94598.84;;;29.71;37.61
41078;BME280;26823;42.662;23.352;2022-08-19T09:08:49;94596.34;;;29.84;37.25
41078;BME280;26823;42.662;23.352;2022-08-19T09:14:09;94591.47;;;30.03;37.03
41078;BME280;26823;42.662;23.352;2022-08-19T09:16:38;94583.09;;;30.06;32.87
41078;BME280;26823;42.662;23.352;2022-08-19T09:19:06;94574.69;;;30.10;33.97
41078;BME280;26823;42.662;23.352;2022-08-19T09:21:36;94582.84;;;30.35;33.08
41078;BME280;26823;42.662;23.352;2022-08-19T09:24:02;94586.34;;;30.47;31.91
41078;BME280;26823;42.662;23.352;2022-08-19T09:26:37;94569.94;;;30.52;32.14
41078;BME280;26823;42.662;23.352;2022-08-19T09:29:03;94576.97;;;30.68;30.77
41078;BME280;26823;42.662;23.352;2022-08-19T09:31:31;94566.47;;;30.79;29.53
41078;BME280;26823;42.662;23.352;2022-08-19T09:33:58;94575.06;;;30.96;31.24
41078;BME280;26823;42.662;23.352;2022-08-19T09:36:25;94571.41;;;31.02;30.48
41078;BME280;26823;42.662;23.352;2022-08-19T09:38:52;94565.75;;;31.10;30.16
41078;BME280;26823;42.662;23.352;2022-08-19T09:41:20;94567.03;;;31.32;30.17
41078;BME280;26823;42.662;23.352;2022-08-19T09:43:49;94564.53;;;31.42;28.70
41078;BME280;26823;42.662;23.352;2022-08-19T09:46:21;94570.41;;;31.51;29.57
41078;BME280;26823;42.662;23.352;2022-08-19T09:48:47;94576.06;;;31.44;28.51
41078;BME280;26823;42.662;23.352;2022-08-19T09:51:15;94553.69;;;31.47;27.85
41078;BME280;26823;42.662;23.352;2022-08-19T09:53:42;94568.25;;;31.62;29.93
41078;BME280;26823;42.662;23.352;2022-08-19T09:56:09;94560.91;;;31.45;28.90
41078;BME280;26823;42.662;23.352;2022-08-19T09:58:35;94545.97;;;31.55;28.91
41078;BME280;26823;42.662;23.352;2022-08-19T10:01:02;94548.00;;;31.54;29.72
41078;BME280;26823;42.662;23.352;2022-08-19T10:03:29;94515.59;;;30.99;29.01
41078;BME280;26823;42.662;23.352;2022-08-19T10:05:55;94547.78;;;31.11;29.57
41078;BME280;26823;42.662;23.352;2022-08-19T10:08:27;94541.84;;;31.05;30.07
41078;BME280;26823;42.662;23.352;2022-08-19T10:10:54;94539.56;;;30.96;29.71
41078;BME280;26823;42.662;23.352;2022-08-19T10:13:46;94541.47;;;31.03;29.36
41078;BME280;26823;42.662;23.352;2022-08-19T10:16:14;94538.09;;;30.84;29.49
41078;BME280;26823;42.662;23.352;2022-08-19T10:18:41;94539.56;;;30.96;29.19
41078;BME280;26823;42.662;23.352;2022-08-19T10:21:10;94538.19;;;31.12;28.53
41078;BME280;26823;42.662;23.352;2022-08-19T10:23:38;94533.00;;;31.41;28.47
41078;BME280;26823;42.662;23.352;2022-08-19T10:26:05;94529.63;;;31.26;28.57
41078;BME280;26823;42.662;23.352;2022-08-19T10:28:36;94504.91;;;30.94;29.35
41078;BME280;26823;42.662;23.352;2022-08-19T10:31:10;94520.72;;;31.04;28.54
41078;BME280;26823;42.662;23.352;2022-08-19T10:33:37;94519.09;;;31.10;28.21
41078;BME280;26823;42.662;23.352;2022-08-19T10:36:08;94503.38;;;31.20;28.57
41078;BME280;26823;42.662;23.352;2022-08-19T10:38:35;94499.56;;;31.06;27.12
41078;BME280;26823;42.662;23.352;2022-08-19T10:41:15;94511.72;;;31.51;27.12
41078;BME280;26823;42.662;23.352;2022-08-19T10:43:42;94520.47;;;31.80;27.54
41078;BME280;26823;42.662;23.352;2022-08-19T10:46:09;94517.50;;;31.91;27.42
41078;BME280;26823;42.662;23.352;2022-08-19T10:48:35;94509.31;;;32.04;27.74
41078;BME280;26823;42.662;23.352;2022-08-19T10:51:02;94510.13;;;32.01;27.85
41078;BME280;26823;42.662;23.352;2022-08-19T10:53:46;94517.09;;;32.16;28.00
41078;BME280;26823;42.662;23.352;2022-08-19T10:56:12;94509.84;;;32.43;27.50
41078;BME280;26823;42.662;23.352;2022-08-19T10:58:56;94506.38;;;32.35;28.07
41078;BME280;26823;42.662;23.352;2022-08-19T11:01:23;94509.13;;;32.39;27.90
41078;BME280;26823;42.662;23.352;2022-08-19T11:03:49;94505.25;;;32.52;27.13
41078;BME280;26823;42.662;23.352;2022-08-19T11:06:15;94492.47;;;32.31;27.73
41078;BME280;26823;42.662;23.352;2022-08-19T11:08:41;94507.00;;;32.23;27.93
41078;BME280;26823;42.662;23.352;2022-08-19T11:11:10;94504.50;;;32.04;27.43
41078;BME280;26823;42.662;23.352;2022-08-19T11:13:39;94507.66;;;32.07;28.17
41078;BME280;26823;42.662;23.352;2022-08-19T11:16:12;94508.25;;;31.70;28.56
41078;BME280;26823;42.662;23.352;2022-08-19T11:18:41;94507.25;;;31.57;28.72
41078;BME280;26823;42.662;23.352;2022-08-19T11:21:19;94508.19;;;31.74;27.55
41078;BME280;26823;42.662;23.352;2022-08-19T11:23:47;94497.03;;;31.98;27.51
41078;BME280;26823;42.662;23.352;2022-08-19T11:26:14;94499.03;;;31.74;27.92
41078;BME280;26823;42.662;23.352;2022-08-19T11:28:40;94501.94;;;31.66;28.00
41078;BME280;26823;42.662;23.352;2022-08-19T11:31:14;94490.34;;;31.92;27.83
41078;BME280;26823;42.662;23.352;2022-08-19T11:33:40;94495.56;;;32.13;27.19
41078;BME280;26823;42.662;23.352;2022-08-19T11:36:06;94486.38;;;32.36;26.72
41078;BME280;26823;42.662;23.352;2022-08-19T11:38:33;94477.06;;;32.43;27.18
41078;BME280;26823;42.662;23.352;2022-08-19T11:41:02;94485.69;;;32.73;26.68
41078;BME280;26823;42.662;23.352;2022-08-19T11:43:28;94473.28;;;32.74;26.08
41078;BME280;26823;42.662;23.352;2022-08-19T11:45:55;94463.94;;;32.60;26.25
41078;BME280;26823;42.662;23.352;2022-08-19T11:48:22;94479.28;;;32.92;26.12
41078;BME280;26823;42.662;23.352;2022-08-19T11:50:54;94455.19;;;32.78;26.08
41078;BME280;26823;42.662;23.352;2022-08-19T11:53:22;94470.81;;;32.96;26.26
41078;BME280;26823;42.662;23.352;2022-08-19T11:55:48;94480.59;;;33.08;26.01
41078;BME280;26823;42.662;23.352;2022-08-19T11:58:16;94477.78;;;33.28;25.71
41078;BME280;26823;42.662;23.352;2022-08-19T12:00:42;94470.53;;;33.47;26.09
41078;BME280;26823;42.662;23.352;2022-08-19T12:03:10;94469.13;;;33.72;25.66
41078;BME280;26823;42.662;23.352;2022-08-19T12:05:37;94468.44;;;33.68;25.94
41078;BME280;26823;42.662;23.352;2022-08-19T12:08:03;94463.88;;;33.57;25.94
41078;BME280;26823;42.662;23.352;2022-08-19T12:10:29;94447.84;;;33.58;26.36
41078;BME280;26823;42.662;23.352;2022-08-19T12:12:54;94459.03;;;33.41;25.87
41078;BME280;26823;42.662;23.352;2022-08-19T12:15:20;94453.81;;;33.60;25.75
41078;BME280;26823;42.662;23.352;2022-08-19T12:17:45;94444.78;;;33.69;26.02
41078;BME280;26823;42.662;23.352;2022-08-19T12:20:11;94444.50;;;33.46;26.41
41078;BME280;26823;42.662;23.352;2022-08-19T12:22:39;94441.16;;;33.35;26.20
41078;BME280;26823;42.662;23.352;2022-08-19T12:25:07;94434.72;;;33.55;25.72
41078;BME280;26823;42.662;23.352;2022-08-19T12:27:33;94425.59;;;33.84;24.74
41078;BME280;26823;42.662;23.352;2022-08-19T12:30:01;94425.06;;;33.72;25.51
41078;BME280;26823;42.662;23.352;2022-08-19T12:32:27;94417.53;;;33.86;25.01
41078;BME280;26823;42.662;23.352;2022-08-19T12:34:52;94421.47;;;33.88;25.26
41078;BME280;26823;42.662;23.352;2022-08-19T12:37:18;94418.06;;;33.64;25.52
41078;BME280;26823;42.662;23.352;2022-08-19T12:39:43;94421.66;;;33.81;24.98
41078;BME280;26823;42.662;23.352;2022-08-19T12:42:13;94400.03;;;33.81;25.39
41078;BME280;26823;42.662;23.352;2022-08-19T12:44:40;94418.50;;;33.79;25.29
41078;BME280;26823;42.662;23.352;2022-08-19T12:47:07;94420.06;;;33.96;24.70
41078;BME280;26823;42.662;23.352;2022-08-19T12:49:33;94406.25;;;33.89;25.08
41078;BME280;26823;42.662;23.352;2022-08-19T12:52:00;94408.25;;;33.89;24.91
41078;BME280;26823;42.662;23.352;2022-08-19T12:54:27;94405.34;;;33.76;25.87
41078;BME280;26823;42.662;23.352;2022-08-19T12:56:52;94415.78;;;33.59;25.97
41078;BME280;26823;42.662;23.352;2022-08-19T12:59:18;94418.84;;;33.64;25.88
41078;BME280;26823;42.662;23.352;2022-08-19T13:01:44;94407.63;;;33.81;25.31
41078;BME280;26823;42.662;23.352;2022-08-19T13:04:10;94411.16;;;33.85;25.66
41078;BME280;26823;42.662;23.352;2022-08-19T13:06:35;94412.38;;;33.35;25.78